createdAt,value
2022-11-23T00:00:59.134Z,1.10
2022-11-23T00:02:06.188Z,1.02
2022-11-23T00:03:19.336Z,1.30
2022-11-23T00:04:27.695Z,1.10
2022-11-23T00:05:39.382Z,1.38
2022-11-23T00:06:47.016Z,1.10
2022-11-23T00:07:54.868Z,1.20
2022-11-23T00:09:03.629Z,1.33
2022-11-23T00:10:10.587Z,1.20
2022-11-23T00:11:22.277Z,1.30
2022-11-23T00:12:30.166Z,1.10
2022-11-23T00:13:41.983Z,1.10
2022-11-23T00:14:49.017Z,1.13
2022-11-23T00:15:56.591Z,1.40
2022-11-23T00:18:27.239Z,1.30
2022-11-23T00:19:34.271Z,1.30
2022-11-23T00:20:43.752Z,1.25
2022-11-23T00:21:50.264Z,1.15
2022-11-23T00:22:57.695Z,1.20
2022-11-23T00:24:05.820Z,1.38
2022-11-23T00:25:14.272Z,1.20
2022-11-23T00:26:21.512Z,1.10
2022-11-23T00:27:29.400Z,1.10
2022-11-23T00:28:41.790Z,1.20
2022-11-23T00:29:48.003Z,0.93
2022-11-23T00:30:55.955Z,1.20
2022-11-23T00:32:04.348Z,1.27
2022-11-23T00:33:12.826Z,1.38
2022-11-23T00:34:21.148Z,1.50
2022-11-23T00:35:30.509Z,1.50
2022-11-23T00:36:40.571Z,1.15
2022-11-23T00:37:48.948Z,1.33
2022-11-23T00:38:57.899Z,1.67
2022-11-23T00:40:05.284Z,2.78
2022-11-23T00:41:15.330Z,1.60
2022-11-23T00:42:22.312Z,5.53
2022-11-23T00:43:31.122Z,3.50
2022-11-23T00:44:39.931Z,2.97
2022-11-23T00:45:53.463Z,1.98
2022-11-23T00:47:01.424Z,1.50
2022-11-23T00:48:08.551Z,1.25
2022-11-23T00:49:17.472Z,1.20
2022-11-23T00:50:23.771Z,1.30
2022-11-23T00:51:34.527Z,1.60
2022-11-23T00:52:41.096Z,2.83
2022-11-23T00:53:48.237Z,2.17
2022-11-23T00:54:55.942Z,2.35
2022-11-23T00:56:02.425Z,2.33
2022-11-23T00:57:09.831Z,2.15
2022-11-23T00:58:17.566Z,1.63
2022-11-23T00:59:25.785Z,2.92
2022-11-23T01:00:32.941Z,1.30
2022-11-23T01:01:42.239Z,2.45
2022-11-23T01:02:49.598Z,1.50
2022-11-23T01:04:00.242Z,2.00
2022-11-23T01:05:09.697Z,1.80
2022-11-23T01:06:20.523Z,1.70
2022-11-23T01:07:27.951Z,2.10
2022-11-23T01:08:37.814Z,1.88
2022-11-23T01:09:45.448Z,1.70
2022-11-23T01:10:52.862Z,2.10
2022-11-23T01:11:59.076Z,1.40
2022-11-23T01:13:07.095Z,1.30
2022-11-23T01:14:17.364Z,1.30
2022-11-23T01:15:26.310Z,2.50
2022-11-23T01:16:37.015Z,1.87
2022-11-23T01:17:44.932Z,1.88
2022-11-23T01:18:57.550Z,1.90
2022-11-23T01:20:04.732Z,1.60
2022-11-23T01:21:14.940Z,1.77
2022-11-23T01:22:23.103Z,1.80
2022-11-23T01:23:32.132Z,1.40
2022-11-23T01:24:40.110Z,1.38
2022-11-23T01:25:53.127Z,1.50
2022-11-23T01:27:04.618Z,1.50
2022-11-23T01:28:13.744Z,1.40
2022-11-23T01:29:21.327Z,1.40
2022-11-23T01:30:28.015Z,1.60
2022-11-23T01:31:36.087Z,1.40
2022-11-23T01:32:44.213Z,1.52
2022-11-23T01:33:57.122Z,1.80
2022-11-23T01:35:03.251Z,1.75
2022-11-23T01:36:34.953Z,1.85
2022-11-23T01:37:43.131Z,1.38
2022-11-23T01:38:51.938Z,1.33
2022-11-23T01:40:01.200Z,1.40
2022-11-23T01:41:14.900Z,1.20
2022-11-23T01:42:21.896Z,1.48
2022-11-23T01:43:29.992Z,1.60
2022-11-23T01:44:41.353Z,1.10
2022-11-23T01:46:00.794Z,1.25
2022-11-23T01:47:11.208Z,1.20
2022-11-23T01:48:32.536Z,1.10
2022-11-23T01:49:46.132Z,1.35
2022-11-23T01:50:55.850Z,1.20
2022-11-23T01:52:14.800Z,1.23
2022-11-23T01:53:24.300Z,1.10
2022-11-23T01:54:52.403Z,0.93
2022-11-23T01:56:03.743Z,1.10
2022-11-23T01:57:17.236Z,1.00
2022-11-23T01:58:26.524Z,0.90
2022-11-23T01:59:37.248Z,0.98
2022-11-23T02:00:47.623Z,1.13
2022-11-23T02:01:55.730Z,1.20
2022-11-23T02:03:07.337Z,1.00
2022-11-23T02:04:23.582Z,1.07
2022-11-23T02:05:44.207Z,1.30
2022-11-23T02:06:58.180Z,1.27
2022-11-23T02:08:07.510Z,1.15
2022-11-23T02:09:17.853Z,1.65
2022-11-23T02:10:25.957Z,1.10
2022-11-23T02:11:34.959Z,1.88
2022-11-23T02:12:48.011Z,1.23
2022-11-23T02:13:54.435Z,1.20
2022-11-23T02:15:02.869Z,1.30
2022-11-23T02:16:11.019Z,1.30
2022-11-23T02:17:18.656Z,1.08
2022-11-23T02:18:32.841Z,1.42
2022-11-23T02:20:10.625Z,1.20
2022-11-23T02:21:20.622Z,1.40
2022-11-23T02:22:42.956Z,1.05
2022-11-23T02:24:23.404Z,1.13
2022-11-23T02:25:49.058Z,1.20
2022-11-23T02:26:56.903Z,0.93
2022-11-23T02:28:06.890Z,1.60
2022-11-23T02:29:31.187Z,2.20
2022-11-23T02:30:42.682Z,3.17
2022-11-23T02:31:49.634Z,2.80
2022-11-23T02:32:56.764Z,1.60
2022-11-23T02:34:06.334Z,3.00
2022-11-23T02:35:15.011Z,2.88
2022-11-23T02:36:45.671Z,2.30
2022-11-23T02:37:55.369Z,2.20
2022-11-23T02:39:05.544Z,2.03
2022-11-23T02:40:39.240Z,2.23
2022-11-23T02:41:57.443Z,1.75
2022-11-23T02:43:06.639Z,1.42
2022-11-23T02:44:53.220Z,1.00
2022-11-23T02:46:05.286Z,1.10
2022-11-23T02:47:14.894Z,1.10
2022-11-23T02:49:50.116Z,1.20
2022-11-23T02:50:58.212Z,1.00
2022-11-23T02:52:07.993Z,1.10
2022-11-23T02:53:17.232Z,1.03
2022-11-23T02:54:25.008Z,1.10
2022-11-23T02:55:34.885Z,1.00
2022-11-23T02:56:44.271Z,1.15
2022-11-23T02:57:52.459Z,1.00
2022-11-23T02:59:01.826Z,1.20
2022-11-23T03:00:09.562Z,1.10
2022-11-23T03:01:18.833Z,1.35
2022-11-23T03:02:26.544Z,1.20
2022-11-23T03:03:34.091Z,1.10
2022-11-23T03:04:43.983Z,1.30
2022-11-23T03:05:51.498Z,1.38
2022-11-23T03:07:01.084Z,1.23
2022-11-23T03:08:08.951Z,1.50
2022-11-23T03:09:19.032Z,1.30
2022-11-23T03:10:27.047Z,1.38
2022-11-23T03:11:36.455Z,1.30
2022-11-23T03:12:45.094Z,1.25
2022-11-23T03:13:53.728Z,1.10
2022-11-23T03:15:01.437Z,1.00
2022-11-23T03:16:10.474Z,1.00
2022-11-23T03:17:18.330Z,1.20
2022-11-23T03:18:27.037Z,1.13
2022-11-23T03:19:35.338Z,1.30
2022-11-23T03:20:42.770Z,1.38
2022-11-23T03:21:51.975Z,1.00
2022-11-23T03:22:59.645Z,1.15
2022-11-23T03:24:07.765Z,1.00
2022-11-23T03:25:17.223Z,1.15
2022-11-23T03:26:28.074Z,1.20
2022-11-23T03:27:43.643Z,1.10
2022-11-23T03:28:51.481Z,1.00
2022-11-23T03:29:58.397Z,1.00
2022-11-23T03:31:09.422Z,1.25
2022-11-23T03:32:18.235Z,1.40
2022-11-23T03:33:29.656Z,1.25
2022-11-23T03:34:38.297Z,1.23
2022-11-23T03:35:44.255Z,1.33
2022-11-23T03:37:06.927Z,1.10
2022-11-23T03:38:15.807Z,1.38
2022-11-23T03:39:22.808Z,1.17
2022-11-23T03:40:47.963Z,1.10
2022-11-23T03:42:19.830Z,1.00
2022-11-23T03:43:27.102Z,1.27
2022-11-23T03:44:35.560Z,1.10
2022-11-23T03:45:46.626Z,1.33
2022-11-23T03:46:54.141Z,1.10
2022-11-23T03:48:03.792Z,1.50
2022-11-23T03:49:12.969Z,1.20
2022-11-23T03:50:20.658Z,1.40
2022-11-23T03:51:29.706Z,1.20
2022-11-23T03:52:37.864Z,1.50
2022-11-23T03:53:43.796Z,1.45
2022-11-23T03:54:52.042Z,1.20
2022-11-23T03:56:00.103Z,1.75
2022-11-23T03:57:07.723Z,1.27
2022-11-23T03:58:17.738Z,1.20
2022-11-23T03:59:25.004Z,1.02
2022-11-23T04:00:33.609Z,1.17
2022-11-23T04:01:41.260Z,1.27
2022-11-23T04:02:55.629Z,1.20
2022-11-23T04:04:36.252Z,1.47
2022-11-23T04:05:50.066Z,1.30
2022-11-23T04:07:25.816Z,1.45
2022-11-23T04:08:33.861Z,1.50
2022-11-23T04:09:46.362Z,1.20
2022-11-23T04:11:03.537Z,1.40
2022-11-23T04:12:16.430Z,1.70
2022-11-23T04:13:23.334Z,1.40
2022-11-23T04:14:29.722Z,1.10
2022-11-23T04:15:39.184Z,1.17
2022-11-23T04:16:47.600Z,1.10
2022-11-23T04:17:55.196Z,1.10
2022-11-23T04:19:03.641Z,1.08
2022-11-23T04:20:10.867Z,1.10
2022-11-23T04:21:18.463Z,1.10
2022-11-23T04:22:25.900Z,1.10
2022-11-23T04:23:33.758Z,1.02
2022-11-23T04:24:43.261Z,1.13
2022-11-23T04:25:54.029Z,1.27
2022-11-23T04:27:02.635Z,0.93
2022-11-23T04:28:09.972Z,0.90
2022-11-23T04:29:16.450Z,1.00
2022-11-23T04:30:29.439Z,1.10
2022-11-23T04:31:39.453Z,1.15
2022-11-23T04:32:51.602Z,1.10
2022-11-23T04:34:02.389Z,1.00
2022-11-23T04:35:11.088Z,1.00
2022-11-23T04:36:20.021Z,1.05
2022-11-23T04:37:28.807Z,0.93
2022-11-23T04:38:39.071Z,1.13
2022-11-23T04:39:48.057Z,1.20
2022-11-23T04:40:56.523Z,1.00
2022-11-23T04:42:04.296Z,1.20
2022-11-23T04:43:13.489Z,0.90
2022-11-23T04:44:21.005Z,0.93
2022-11-23T04:45:29.511Z,1.00
2022-11-23T04:46:40.409Z,1.10
2022-11-23T04:47:51.695Z,1.33
2022-11-23T04:49:01.104Z,1.50
2022-11-23T04:50:09.078Z,1.37
2022-11-23T04:51:19.388Z,0.90
2022-11-23T04:52:28.143Z,1.60
2022-11-23T04:53:36.442Z,1.25
2022-11-23T04:54:45.221Z,0.93
2022-11-23T04:55:54.170Z,1.40
2022-11-23T04:57:03.335Z,1.02
2022-11-23T04:58:12.286Z,1.30
2022-11-23T04:59:20.264Z,1.65
2022-11-23T05:00:27.259Z,1.40
2022-11-23T05:01:35.966Z,1.20
2022-11-23T05:03:05.542Z,1.52
2022-11-23T05:04:17.929Z,1.40
2022-11-23T05:05:25.660Z,1.30
2022-11-23T05:06:33.822Z,1.70
2022-11-23T05:07:39.973Z,1.27
2022-11-23T05:08:48.312Z,1.17
2022-11-23T05:10:23.978Z,1.25
2022-11-23T05:11:35.442Z,1.60
2022-11-23T05:12:42.756Z,1.20
2022-11-23T05:13:48.831Z,1.47
2022-11-23T05:14:57.632Z,1.38
2022-11-23T05:16:10.936Z,1.48
2022-11-23T05:17:18.722Z,1.80
2022-11-23T05:18:26.472Z,1.60
2022-11-23T05:19:34.465Z,2.00
2022-11-23T05:20:42.242Z,1.73
2022-11-23T05:21:50.908Z,1.70
2022-11-23T05:22:56.768Z,1.60
2022-11-23T05:24:04.514Z,2.15
2022-11-23T05:25:11.939Z,1.67
2022-11-23T05:26:18.391Z,1.58
2022-11-23T05:27:25.116Z,1.50
2022-11-23T05:28:40.283Z,1.60
2022-11-23T05:29:52.418Z,1.30
2022-11-23T05:31:01.745Z,1.52
2022-11-23T05:32:13.598Z,1.20
2022-11-23T05:33:21.942Z,1.50
2022-11-23T05:34:26.631Z,1.00
2022-11-23T05:35:34.721Z,1.00
2022-11-23T05:36:42.796Z,0.87
2022-11-23T05:37:51.591Z,1.15
2022-11-23T05:39:00.008Z,0.90
2022-11-23T05:40:14.091Z,1.20
2022-11-23T05:41:21.638Z,1.08
2022-11-23T05:42:31.792Z,1.10
2022-11-23T05:43:48.927Z,0.70
2022-11-23T05:45:02.488Z,1.00
2022-11-23T05:46:18.939Z,0.88
2022-11-23T05:47:26.966Z,0.90
2022-11-23T05:48:34.710Z,1.00
2022-11-23T05:49:48.505Z,1.00
2022-11-23T05:51:04.796Z,0.95
2022-11-23T05:52:16.843Z,0.98
2022-11-23T05:53:27.002Z,0.98
2022-11-23T05:54:41.475Z,1.20
2022-11-23T05:55:53.864Z,1.50
2022-11-23T05:57:02.986Z,1.73
2022-11-23T05:58:17.461Z,1.50
2022-11-23T05:59:24.927Z,1.23
2022-11-23T06:00:38.780Z,1.10
2022-11-23T06:01:47.344Z,1.15
2022-11-23T06:03:06.774Z,1.55
2022-11-23T06:04:16.340Z,1.80
2022-11-23T06:05:25.183Z,1.80
2022-11-23T06:06:32.889Z,1.70
2022-11-23T06:07:41.475Z,1.60
2022-11-23T06:08:54.243Z,1.30
2022-11-23T06:10:01.518Z,1.20
2022-11-23T06:11:09.560Z,1.00
2022-11-23T06:12:21.759Z,1.10
2022-11-23T06:13:28.548Z,1.15
2022-11-23T06:14:35.578Z,1.63
2022-11-23T06:15:45.209Z,1.92
2022-11-23T06:16:54.281Z,1.60
2022-11-23T06:18:15.973Z,1.90
2022-11-23T06:19:27.466Z,2.13
2022-11-23T06:20:37.926Z,2.00
2022-11-23T06:21:50.259Z,1.33
2022-11-23T06:23:00.512Z,1.50
2022-11-23T06:24:09.277Z,1.47
2022-11-23T06:25:16.455Z,1.60
2022-11-23T06:26:30.771Z,2.00
2022-11-23T06:27:40.519Z,1.50
2022-11-23T06:28:58.806Z,1.30
2022-11-23T06:30:08.438Z,1.20
2022-11-23T06:31:16.152Z,1.35
2022-11-23T06:32:23.564Z,1.40
2022-11-23T06:33:31.840Z,1.50
2022-11-23T06:34:43.168Z,1.80
2022-11-23T06:36:01.001Z,1.43
2022-11-23T06:37:16.296Z,1.90
2022-11-23T06:38:30.522Z,1.83
2022-11-23T06:39:51.737Z,1.95
2022-11-23T06:41:03.852Z,1.60
2022-11-23T06:42:37.250Z,1.50
2022-11-23T06:43:37.442Z,1.58
2022-11-23T06:44:48.708Z,1.38
2022-11-23T06:46:00.420Z,1.40
2022-11-23T06:47:13.912Z,1.75
2022-11-23T06:48:25.834Z,1.60
2022-11-23T06:49:37.632Z,1.70
2022-11-23T06:50:58.570Z,1.40
2022-11-23T06:52:07.605Z,1.50
2022-11-23T06:53:16.918Z,1.40
2022-11-23T06:54:28.661Z,1.20
2022-11-23T06:55:38.273Z,1.40
2022-11-23T06:56:47.381Z,1.50
2022-11-23T06:57:55.753Z,1.50
2022-11-23T06:59:04.269Z,1.60
2022-11-23T07:00:17.734Z,1.27
2022-11-23T07:01:26.532Z,1.45
2022-11-23T07:02:43.464Z,1.90
2022-11-23T07:03:53.912Z,1.50
2022-11-23T07:05:07.743Z,1.13
2022-11-23T07:06:17.582Z,1.40
2022-11-23T07:07:24.655Z,3.10
2022-11-23T07:08:46.185Z,1.30
2022-11-23T07:10:12.058Z,1.20
2022-11-23T07:11:35.146Z,1.30
2022-11-23T07:12:43.378Z,1.50
2022-11-23T07:13:54.029Z,1.30
2022-11-23T07:15:05.274Z,1.10
2022-11-23T07:16:17.802Z,1.20
2022-11-23T07:17:26.065Z,1.20
2022-11-23T07:18:35.440Z,1.30
2022-11-23T07:19:43.550Z,1.30
2022-11-23T07:20:53.320Z,1.55
2022-11-23T07:22:01.622Z,1.00
2022-11-23T07:23:13.900Z,1.35
2022-11-23T07:24:23.545Z,1.20
2022-11-23T07:25:36.148Z,1.30
2022-11-23T07:26:43.901Z,1.30
2022-11-23T07:27:51.800Z,1.45
2022-11-23T07:28:58.498Z,2.20
2022-11-23T07:30:06.392Z,2.92
2022-11-23T07:31:18.976Z,3.20
2022-11-23T07:32:25.389Z,3.22
2022-11-23T07:33:33.384Z,4.05
2022-11-23T07:34:40.800Z,3.58
2022-11-23T07:35:50.913Z,3.80
2022-11-23T07:37:01.803Z,3.73
2022-11-23T07:38:12.998Z,3.70
2022-11-23T07:39:25.378Z,3.88
2022-11-23T07:40:44.596Z,2.35
2022-11-23T07:42:32.381Z,2.78
2022-11-23T07:43:29.562Z,2.00
2022-11-23T07:44:39.215Z,2.53
2022-11-23T07:45:50.304Z,2.65
2022-11-23T07:46:58.812Z,2.38
2022-11-23T07:48:07.399Z,2.95
2022-11-23T07:49:14.707Z,3.30
2022-11-23T07:50:19.163Z,3.53
2022-11-23T07:51:26.296Z,2.83
2022-11-23T07:52:33.250Z,3.15
2022-11-23T07:53:36.963Z,3.00
2022-11-23T07:54:45.235Z,2.70
2022-11-23T07:55:58.655Z,2.20
2022-11-23T07:57:07.764Z,2.17
2022-11-23T07:58:14.759Z,2.47
2022-11-23T07:59:21.089Z,2.30
2022-11-23T08:00:28.768Z,2.57
2022-11-23T08:01:37.068Z,2.88
2022-11-23T08:03:04.121Z,2.70
2022-11-23T08:04:10.892Z,2.20
2022-11-23T08:05:18.398Z,2.50
2022-11-23T08:06:26.047Z,3.22
2022-11-23T08:07:30.850Z,2.40
2022-11-23T08:08:35.669Z,2.55
2022-11-23T08:09:38.878Z,2.10
2022-11-23T08:10:46.138Z,2.17
2022-11-23T08:11:51.605Z,2.60
2022-11-23T08:12:57.724Z,2.60
2022-11-23T08:14:00.881Z,2.30
2022-11-23T08:15:04.368Z,2.30
2022-11-23T08:16:11.918Z,2.40
2022-11-23T08:17:17.087Z,2.35
2022-11-23T08:18:20.142Z,2.35
2022-11-23T08:19:24.485Z,2.42
2022-11-23T08:20:29.361Z,2.00
2022-11-23T08:21:31.980Z,2.30
2022-11-23T08:22:36.724Z,1.57
2022-11-23T08:23:43.668Z,1.55
2022-11-23T08:24:46.376Z,3.10
2022-11-23T08:25:52.532Z,1.80
2022-11-23T08:27:00.466Z,2.05
2022-11-23T08:28:06.026Z,1.70
2022-11-23T08:29:10.496Z,2.08
2022-11-23T08:30:13.787Z,2.00
2022-11-23T08:31:19.583Z,1.70
2022-11-23T08:32:25.508Z,1.90
2022-11-23T08:33:33.723Z,2.13
2022-11-23T08:34:37.366Z,1.80
2022-11-23T08:35:45.619Z,1.55
2022-11-23T08:36:49.756Z,2.00
2022-11-23T08:37:55.911Z,6.20
2022-11-23T08:38:59.449Z,2.03
2022-11-23T08:40:02.347Z,2.03
2022-11-23T08:41:06.275Z,1.98
2022-11-23T08:42:09.916Z,1.90
2022-11-23T08:43:16.522Z,1.75
2022-11-23T08:44:19.283Z,2.00
2022-11-23T08:45:23.363Z,1.92
2022-11-23T08:46:26.804Z,2.00
2022-11-23T08:47:29.665Z,1.83
2022-11-23T08:48:32.648Z,2.35
2022-11-23T08:49:35.562Z,5.93
2022-11-23T08:50:39.016Z,3.30
2022-11-23T08:51:45.705Z,1.90
2022-11-23T08:53:01.667Z,2.30
2022-11-23T08:54:06.634Z,2.03
2022-11-23T08:55:09.812Z,1.77
2022-11-23T08:56:12.366Z,1.67
2022-11-23T08:57:14.763Z,2.35
2022-11-23T08:58:17.673Z,2.55
2022-11-23T08:59:23.844Z,3.20
2022-11-23T09:00:27.561Z,2.95
2022-11-23T09:01:30.814Z,2.33
2022-11-23T09:02:33.827Z,1.70
2022-11-23T09:03:36.412Z,2.00
2022-11-23T09:04:44.008Z,1.90
2022-11-23T09:05:56.150Z,2.67
2022-11-23T09:06:59.240Z,1.92
2022-11-23T09:08:02.986Z,2.38
2022-11-23T09:09:07.730Z,2.00
2022-11-23T09:10:16.571Z,1.80
2022-11-23T09:11:25.706Z,1.98
2022-11-23T09:12:29.611Z,1.92
2022-11-23T09:13:33.267Z,2.00
2022-11-23T09:14:37.107Z,2.00
2022-11-23T09:15:46.052Z,1.85
2022-11-23T09:16:53.580Z,2.30
2022-11-23T09:18:00.660Z,2.13
2022-11-23T09:19:10.834Z,2.28
2022-11-23T09:20:16.521Z,1.60
2022-11-23T09:21:19.963Z,2.08
2022-11-23T09:22:22.823Z,2.10
2022-11-23T09:23:30.243Z,1.83
2022-11-23T09:24:34.877Z,2.83
2022-11-23T09:25:44.334Z,2.30
2022-11-23T09:26:47.618Z,2.28
2022-11-23T09:27:56.858Z,2.40
2022-11-23T09:28:59.826Z,2.92
2022-11-23T09:30:02.776Z,3.40
2022-11-23T09:31:07.626Z,2.80
2022-11-23T09:32:11.731Z,2.80
2022-11-23T09:33:15.393Z,2.30
2022-11-23T09:34:24.804Z,2.58
2022-11-23T09:35:30.703Z,2.50
2022-11-23T09:36:33.976Z,2.50
2022-11-23T09:37:37.042Z,2.80
2022-11-23T09:38:56.059Z,1.97
2022-11-23T09:40:05.213Z,2.30
2022-11-23T09:41:46.952Z,2.20
2022-11-23T09:43:14.133Z,2.25
2022-11-23T09:44:35.353Z,2.65
2022-11-23T09:46:01.800Z,2.05
2022-11-23T09:47:13.281Z,1.90
2022-11-23T09:49:00.970Z,2.65
2022-11-23T09:50:12.341Z,2.03
2022-11-23T09:51:21.861Z,1.98
2022-11-23T09:52:25.706Z,2.40
2022-11-23T09:53:44.694Z,2.35
2022-11-23T09:54:50.219Z,4.65
2022-11-23T09:55:56.463Z,3.40
2022-11-23T09:57:02.057Z,3.05
2022-11-23T09:58:07.282Z,3.35
2022-11-23T09:59:25.134Z,2.40
2022-11-23T10:00:31.324Z,2.40
2022-11-23T10:01:33.896Z,2.20
2022-11-23T10:02:41.668Z,2.40
2022-11-23T10:03:49.027Z,2.50
2022-11-23T10:05:00.758Z,1.85
2022-11-23T10:06:22.278Z,2.10
2022-11-23T10:07:39.038Z,2.33
2022-11-23T10:09:03.639Z,2.08
2022-11-23T10:10:28.439Z,2.42
2022-11-23T10:11:50.053Z,2.30
2022-11-23T10:13:21.903Z,2.30
2022-11-23T10:14:59.134Z,2.05
2022-11-23T10:16:19.764Z,2.00
2022-11-23T10:17:32.463Z,3.43
2022-11-23T10:18:55.623Z,3.75
2022-11-23T10:20:22.281Z,2.40
2022-11-23T10:21:30.612Z,2.15
2022-11-23T10:23:00.729Z,1.90
2022-11-23T10:24:14.370Z,2.80
2022-11-23T10:25:20.747Z,2.45
2022-11-23T10:26:36.826Z,2.50
2022-11-23T10:27:41.357Z,2.40
2022-11-23T10:28:45.603Z,3.15
2022-11-23T10:29:51.816Z,3.27
2022-11-23T10:31:28.796Z,3.03
2022-11-23T10:32:44.750Z,2.08
2022-11-23T10:33:59.787Z,1.65
2022-11-23T10:35:16.261Z,1.70
2022-11-23T10:36:18.901Z,1.83
2022-11-23T10:37:21.816Z,2.10
2022-11-23T10:38:28.528Z,1.88
2022-11-23T10:39:31.990Z,4.07
2022-11-23T10:40:35.704Z,1.70
2022-11-23T10:41:38.545Z,1.70
2022-11-23T10:42:49.661Z,1.60
2022-11-23T10:44:26.225Z,2.65
2022-11-23T10:45:29.766Z,2.33
2022-11-23T10:46:42.059Z,1.90
2022-11-23T10:47:55.239Z,1.20
2022-11-23T10:49:11.135Z,1.50
2022-11-23T10:50:30.951Z,1.60
2022-11-23T10:51:34.863Z,1.60
2022-11-23T10:52:37.371Z,1.50
2022-11-23T10:53:40.985Z,1.87
2022-11-23T10:54:46.830Z,1.73
2022-11-23T10:55:56.575Z,2.28
2022-11-23T10:57:02.452Z,2.60
2022-11-23T10:58:05.189Z,2.20
2022-11-23T10:59:27.154Z,2.03
2022-11-23T11:00:31.169Z,2.83
2022-11-23T11:01:34.379Z,2.60
2022-11-23T11:02:47.759Z,2.50
2022-11-23T11:03:52.124Z,2.50
2022-11-23T11:05:46.281Z,2.37
2022-11-23T11:06:49.251Z,2.08
2022-11-23T11:07:52.394Z,2.60
2022-11-23T11:08:56.161Z,2.17
2022-11-23T11:10:01.005Z,2.50
2022-11-23T11:11:32.409Z,2.67
2022-11-23T11:12:35.965Z,2.60
2022-11-23T11:13:47.619Z,2.10
2022-11-23T11:15:10.735Z,2.50
2022-11-23T11:16:25.594Z,2.45
2022-11-23T11:17:31.324Z,2.30
2022-11-23T11:18:40.842Z,2.70
2022-11-23T11:19:43.477Z,2.60
2022-11-23T11:20:46.876Z,2.40
2022-11-23T11:21:49.499Z,2.10
2022-11-23T11:22:52.156Z,2.22
2022-11-23T11:24:06.613Z,2.22
2022-11-23T11:25:31.689Z,2.67
2022-11-23T11:26:36.395Z,2.47
2022-11-23T11:27:39.215Z,2.40
2022-11-23T11:28:43.450Z,2.43
2022-11-23T11:29:46.182Z,1.92
2022-11-23T11:31:18.311Z,2.67
2022-11-23T11:32:24.053Z,2.42
2022-11-23T11:34:05.254Z,2.30
2022-11-23T11:35:31.020Z,2.40
2022-11-23T11:36:43.986Z,2.40
2022-11-23T11:37:48.730Z,2.00
2022-11-23T11:39:17.239Z,2.20
2022-11-23T11:40:24.910Z,2.25
2022-11-23T11:41:29.134Z,2.63
2022-11-23T11:42:43.680Z,2.05
2022-11-23T11:44:12.802Z,1.80
2022-11-23T11:45:28.351Z,2.10
2022-11-23T11:46:38.468Z,2.08
2022-11-23T11:47:52.096Z,2.00
2022-11-23T11:49:16.740Z,2.03
2022-11-23T11:50:32.181Z,1.92
2022-11-23T11:51:45.647Z,1.90
2022-11-23T11:52:57.121Z,2.08
2022-11-23T11:54:30.245Z,2.93
2022-11-23T11:56:01.066Z,2.00
2022-11-23T11:57:21.351Z,1.80
2022-11-23T11:58:30.743Z,1.70
2022-11-23T11:59:53.815Z,2.60
2022-11-23T12:01:34.144Z,2.63
2022-11-23T12:03:02.437Z,3.67
2022-11-23T12:04:31.782Z,2.40
2022-11-23T12:05:52.195Z,2.00
2022-11-23T12:07:35.485Z,2.25
2022-11-23T12:09:14.539Z,2.67
2022-11-23T12:10:27.189Z,1.90
2022-11-23T12:11:30.758Z,2.30
2022-11-23T12:12:42.122Z,2.25
2022-11-23T12:13:52.502Z,2.33
2022-11-23T12:14:57.811Z,3.67
2022-11-23T12:16:27.972Z,2.35
2022-11-23T12:17:47.364Z,1.90
2022-11-23T12:19:20.182Z,2.10
2022-11-23T12:20:52.423Z,2.00
2022-11-23T12:22:09.814Z,1.90
2022-11-23T12:24:12.244Z,3.30
2022-11-23T12:25:29.116Z,2.17
2022-11-23T12:26:40.658Z,2.00
2022-11-23T12:28:11.197Z,2.30
2022-11-23T12:29:31.687Z,1.80
2022-11-23T12:31:08.039Z,1.83
2022-11-23T12:32:27.308Z,7.28
2022-11-23T12:34:21.912Z,2.40
2022-11-23T12:36:01.399Z,2.00
2022-11-23T12:37:21.821Z,1.80
2022-11-23T12:38:44.438Z,1.88
2022-11-23T12:40:07.221Z,2.00
2022-11-23T12:41:32.679Z,2.60
2022-11-23T12:42:56.402Z,2.70
2022-11-23T12:44:27.915Z,2.05
2022-11-23T12:45:48.465Z,2.00
2022-11-23T12:47:18.767Z,1.90
2022-11-23T12:48:54.576Z,2.92
2022-11-23T12:50:18.064Z,2.17
2022-11-23T12:51:23.463Z,1.80
2022-11-23T12:52:49.135Z,1.80
2022-11-23T12:54:00.699Z,1.80
2022-11-23T12:55:19.882Z,1.88
2022-11-23T12:57:06.634Z,1.80
2022-11-23T12:58:37.755Z,2.30
2022-11-23T12:59:49.481Z,1.95
2022-11-23T13:00:59.698Z,3.97
2022-11-23T13:02:15.576Z,1.90
2022-11-23T13:03:56.354Z,2.00
2022-11-23T13:05:39.724Z,1.70
2022-11-23T13:07:30.546Z,3.33
2022-11-23T13:08:38.456Z,1.90
2022-11-23T13:09:49.325Z,2.55
2022-11-23T13:11:06.172Z,8.65
2022-11-23T13:12:41.668Z,2.42
2022-11-23T13:14:19.167Z,1.80
2022-11-23T13:15:41.530Z,2.08
2022-11-23T13:16:54.925Z,5.65
2022-11-23T13:18:28.058Z,1.92
2022-11-23T13:20:10.821Z,1.80
2022-11-23T13:21:26.073Z,1.67
2022-11-23T13:22:31.013Z,1.85
2022-11-23T13:23:44.089Z,1.80
2022-11-23T13:25:27.232Z,1.92
2022-11-23T13:26:34.051Z,2.17
2022-11-23T13:27:52.178Z,2.10
2022-11-23T13:29:01.921Z,2.00
2022-11-23T13:32:34.519Z,2.20
2022-11-23T13:33:38.905Z,2.13
2022-11-23T13:34:51.451Z,2.50
2022-11-23T13:36:05.407Z,2.30
2022-11-23T13:37:13.457Z,2.35
2022-11-23T13:38:16.293Z,1.90
2022-11-23T13:39:56.948Z,2.20
2022-11-23T13:41:00.122Z,4.03
2022-11-23T13:42:02.889Z,4.32
2022-11-23T13:43:33.742Z,2.25
2022-11-23T13:44:37.029Z,1.98
2022-11-23T13:45:42.464Z,2.30
2022-11-23T13:46:57.237Z,2.55
2022-11-23T13:48:34.202Z,2.80
2022-11-23T13:49:51.388Z,2.40
2022-11-23T13:50:58.888Z,2.50
2022-11-23T13:52:26.568Z,2.70
2022-11-23T13:53:33.973Z,2.42
2022-11-23T13:54:39.236Z,2.58
2022-11-23T13:55:42.871Z,2.40
2022-11-23T13:56:46.644Z,2.10
2022-11-23T13:58:27.842Z,2.40
2022-11-23T13:59:33.764Z,2.45
2022-11-23T14:00:46.932Z,2.10
2022-11-23T14:02:08.560Z,2.30
2022-11-23T14:03:50.832Z,2.28
2022-11-23T14:04:54.391Z,2.50
2022-11-23T14:06:01.808Z,2.30
2022-11-23T14:07:09.335Z,2.70
2022-11-23T14:08:13.884Z,2.35
2022-11-23T14:09:30.300Z,1.95
2022-11-23T14:10:34.111Z,2.10
2022-11-23T14:11:51.262Z,2.30
2022-11-23T14:13:05.880Z,2.00
2022-11-23T14:14:20.418Z,1.90
2022-11-23T14:15:29.530Z,1.98
2022-11-23T14:16:56.342Z,2.10
2022-11-23T14:18:36.798Z,2.65
2022-11-23T14:19:58.295Z,3.30
2022-11-23T14:21:15.243Z,3.78
2022-11-23T14:22:52.326Z,3.67
2022-11-23T14:24:22.331Z,3.13
2022-11-23T14:25:35.438Z,2.40
2022-11-23T14:27:39.026Z,2.38
2022-11-23T14:28:40.015Z,2.47
2022-11-23T14:30:08.372Z,2.55
2022-11-23T14:31:18.743Z,2.85
2022-11-23T14:32:45.385Z,2.50
2022-11-23T14:33:54.514Z,2.00
2022-11-23T14:35:18.464Z,2.10
2022-11-23T14:36:43.443Z,2.10
2022-11-23T14:38:04.208Z,2.60
2022-11-23T14:39:27.545Z,2.65
2022-11-23T14:40:53.096Z,3.25
2022-11-23T14:42:00.340Z,2.38
2022-11-23T14:43:04.111Z,2.40
2022-11-23T14:44:09.523Z,2.40
2022-11-23T14:45:16.105Z,2.53
2022-11-23T14:46:21.357Z,2.50
2022-11-23T14:47:31.341Z,2.90
2022-11-23T14:48:36.864Z,2.50
2022-11-23T14:49:50.928Z,2.20
2022-11-23T14:50:59.984Z,2.40
2022-11-23T14:52:04.620Z,2.53
2022-11-23T14:53:11.269Z,3.22
2022-11-23T14:54:16.897Z,3.42
2022-11-23T14:55:30.892Z,2.50
2022-11-23T14:56:38.157Z,2.78
2022-11-23T14:57:46.129Z,3.70
2022-11-23T14:58:51.633Z,2.60
2022-11-23T14:59:58.622Z,2.80
2022-11-23T15:01:03.847Z,3.50
2022-11-23T15:02:35.305Z,3.40
2022-11-23T15:03:50.374Z,3.90
2022-11-23T15:05:05.649Z,3.65
2022-11-23T15:06:19.711Z,3.20
2022-11-23T15:07:34.693Z,3.40
2022-11-23T15:08:47.079Z,3.20
2022-11-23T15:10:15.032Z,2.78
2022-11-23T15:11:27.279Z,3.35
2022-11-23T15:12:45.699Z,3.90
2022-11-23T15:13:50.653Z,3.37
2022-11-23T15:14:54.429Z,5.47
2022-11-23T15:15:58.684Z,4.57
2022-11-23T15:17:21.566Z,5.95
2022-11-23T15:18:43.621Z,7.43
2022-11-23T15:20:00.613Z,7.35
2022-11-23T15:21:08.258Z,6.75
2022-11-23T15:22:20.185Z,3.45
2022-11-23T15:23:24.902Z,4.78
2022-11-23T15:24:31.383Z,5.13
2022-11-23T15:25:34.150Z,5.63
2022-11-23T15:26:52.712Z,5.68
2022-11-23T15:27:55.234Z,6.97
2022-11-23T15:28:57.537Z,6.88
2022-11-23T15:30:00.924Z,7.75
2022-11-23T15:31:17.912Z,4.93
2022-11-23T15:32:34.446Z,6.57
2022-11-23T15:33:38.281Z,4.53
2022-11-23T15:34:40.564Z,3.97
2022-11-23T15:35:42.896Z,2.55
2022-11-23T15:36:46.411Z,4.13
2022-11-23T15:37:50.048Z,6.82
2022-11-23T15:38:53.845Z,8.77
2022-11-23T15:39:56.658Z,8.60
2022-11-23T15:41:05.308Z,6.55
2022-11-23T15:42:09.194Z,6.68
2022-11-23T15:43:16.221Z,6.75
2022-11-23T15:44:32.921Z,7.07
2022-11-23T15:45:36.276Z,4.57
2022-11-23T15:46:39.775Z,3.97
2022-11-23T15:47:41.908Z,4.47
2022-11-23T15:48:49.681Z,3.03
2022-11-23T15:49:53.661Z,2.95
2022-11-23T15:51:02.920Z,2.55
2022-11-23T15:52:05.365Z,2.80
2022-11-23T15:53:12.048Z,5.80
2022-11-23T15:54:26.219Z,4.75
2022-11-23T15:55:30.627Z,4.28
2022-11-23T15:56:35.874Z,3.25
2022-11-23T15:57:39.646Z,3.90
2022-11-23T15:58:50.155Z,4.97
2022-11-23T16:00:01.371Z,3.40
2022-11-23T16:01:14.596Z,7.13
2022-11-23T16:02:22.885Z,9.75
2022-11-23T16:03:32.218Z,6.32
2022-11-23T16:04:40.215Z,4.55